createdAt,value
2017-09-13T00:00:01.355Z,9.21
2017-09-13T00:02:28.851Z,9.15
2017-09-13T00:04:56.354Z,8.95
2017-09-13T00:07:23.875Z,8.95
2017-09-13T00:09:51.387Z,8.73
2017-09-13T00:12:18.908Z,8.71
2017-09-13T00:14:46.448Z,8.60
2017-09-13T00:17:13.970Z,8.49
2017-09-13T00:19:41.465Z,8.60
2017-09-13T00:22:08.985Z,8.72
2017-09-13T00:24:36.499Z,8.54
2017-09-13T00:27:04.002Z,8.64
2017-09-13T00:29:31.513Z,8.54
2017-09-13T00:31:59.024Z,8.46
2017-09-13T00:34:26.528Z,8.36
2017-09-13T00:36:54.043Z,8.66
2017-09-13T00:39:21.548Z,8.37
2017-09-13T00:41:49.054Z,8.18
2017-09-13T00:44:16.556Z,8.21
2017-09-13T00:46:44.069Z,8.15
2017-09-13T00:49:11.586Z,8.11
2017-09-13T00:51:39.087Z,8.18
2017-09-13T00:54:06.605Z,8.18
2017-09-13T00:56:34.142Z,8.10
2017-09-13T00:59:01.700Z,7.95
2017-09-13T01:01:29.261Z,7.86
2017-09-13T01:03:56.775Z,7.87
2017-09-13T01:06:24.273Z,7.89
2017-09-13T01:08:51.834Z,7.78
2017-09-13T01:11:19.337Z,7.90
2017-09-13T01:13:46.847Z,8.09
2017-09-13T01:16:14.367Z,8.01
2017-09-13T01:18:41.876Z,8.32
2017-09-13T01:21:09.373Z,8.38
2017-09-13T01:23:36.875Z,8.06
2017-09-13T01:26:04.375Z,8.09
2017-09-13T01:28:31.887Z,8.12
2017-09-13T01:30:59.394Z,7.99
2017-09-13T01:33:26.909Z,7.82
2017-09-13T01:35:54.432Z,7.57
2017-09-13T01:38:21.945Z,7.77
2017-09-13T01:40:49.485Z,7.76
2017-09-13T01:43:16.992Z,7.48
2017-09-13T01:45:44.504Z,7.90
2017-09-13T01:48:12.028Z,7.64
2017-09-13T01:50:39.536Z,7.81
2017-09-13T01:53:07.035Z,7.78
2017-09-13T01:55:34.536Z,7.40
2017-09-13T01:58:02.236Z,7.49
2017-09-13T02:00:29.744Z,7.47
2017-09-13T02:02:57.253Z,7.45
2017-09-13T02:05:24.753Z,7.38
2017-09-13T02:07:52.285Z,7.28
2017-09-13T02:10:19.819Z,7.14
2017-09-13T02:12:47.330Z,7.34
2017-09-13T02:15:14.852Z,7.29
2017-09-13T02:17:43.105Z,7.20
2017-09-13T02:20:10.615Z,7.24
2017-09-13T02:22:38.118Z,7.33
2017-09-13T02:25:05.819Z,7.35
2017-09-13T02:27:33.322Z,7.46
2017-09-13T02:30:00.827Z,7.37
2017-09-13T02:32:28.353Z,7.29
2017-09-13T02:34:55.896Z,7.12
2017-09-13T02:37:23.402Z,6.99
2017-09-13T02:39:50.910Z,6.93
2017-09-13T02:42:18.431Z,6.99
2017-09-13T02:44:45.955Z,7.25
2017-09-13T02:47:13.461Z,7.15
2017-09-13T02:49:40.976Z,7.04
2017-09-13T02:52:08.496Z,7.17
2017-09-13T02:54:36.004Z,7.04
2017-09-13T02:57:03.509Z,7.05
2017-09-13T02:59:31.020Z,7.02
2017-09-13T03:01:58.519Z,6.85
2017-09-13T03:04:26.020Z,6.82
2017-09-13T03:06:53.516Z,6.95
2017-09-13T03:09:21.034Z,7.01
2017-09-13T03:11:48.534Z,7.09
2017-09-13T03:14:16.044Z,7.06
2017-09-13T03:16:43.566Z,6.82
2017-09-13T03:19:11.082Z,6.93
2017-09-13T03:21:38.601Z,6.82
2017-09-13T03:24:06.124Z,7.00
2017-09-13T03:26:33.640Z,6.98
2017-09-13T03:29:01.141Z,6.86
2017-09-13T03:31:28.854Z,6.93
2017-09-13T03:33:56.418Z,6.86
2017-09-13T03:36:24.087Z,6.94
2017-09-13T03:38:51.598Z,6.81
2017-09-13T03:41:19.107Z,6.87
2017-09-13T03:43:46.948Z,6.74
2017-09-13T03:46:14.499Z,6.74
2017-09-13T03:48:42.007Z,6.73
2017-09-13T03:51:09.527Z,6.79
2017-09-13T03:53:37.236Z,6.72
2017-09-13T03:56:04.761Z,6.77
2017-09-13T03:58:32.259Z,6.79
2017-09-13T04:01:00.773Z,6.71
2017-09-13T04:03:28.295Z,6.73
2017-09-13T04:05:55.795Z,6.75
2017-09-13T04:08:23.316Z,6.80
2017-09-13T04:10:50.828Z,6.76
2017-09-13T04:13:19.280Z,6.69
2017-09-13T04:15:46.783Z,6.59
2017-09-13T04:18:15.196Z,6.70
2017-09-13T04:20:42.721Z,6.83
2017-09-13T04:23:10.247Z,6.84
2017-09-13T04:25:37.766Z,7.06
2017-09-13T04:28:05.267Z,6.89
2017-09-13T04:30:32.783Z,6.93
2017-09-13T04:33:00.306Z,7.09
2017-09-13T04:35:27.840Z,7.07
2017-09-13T04:37:55.344Z,7.20
2017-09-13T04:40:22.856Z,7.26
2017-09-13T04:42:50.384Z,7.29
2017-09-13T04:45:17.888Z,7.49
2017-09-13T04:47:45.408Z,7.54
2017-09-13T04:50:12.905Z,7.80
2017-09-13T04:52:40.424Z,8.45
2017-09-13T04:55:07.940Z,8.57
2017-09-13T04:57:35.458Z,8.86
2017-09-13T05:00:02.974Z,9.73
2017-09-13T05:02:30.534Z,9.68
2017-09-13T05:04:58.070Z,9.94
2017-09-13T05:07:25.582Z,10.12
2017-09-13T05:09:53.087Z,10.34
2017-09-13T05:12:20.662Z,10.31
2017-09-13T05:14:48.182Z,10.50
2017-09-13T05:17:15.695Z,10.60
2017-09-13T05:19:43.222Z,10.71
2017-09-13T05:22:10.740Z,10.66
2017-09-13T05:24:38.245Z,10.97
2017-09-13T05:27:05.752Z,11.05
2017-09-13T05:29:33.266Z,11.14
2017-09-13T05:32:00.820Z,11.23
2017-09-13T05:34:28.599Z,11.73
2017-09-13T05:36:56.111Z,11.93
2017-09-13T05:39:23.627Z,12.34
2017-09-13T05:41:51.137Z,12.71
2017-09-13T05:44:18.708Z,12.78
2017-09-13T05:46:46.333Z,13.10
2017-09-13T05:49:13.867Z,13.37
2017-09-13T05:51:41.377Z,13.49
2017-09-13T05:54:08.885Z,13.63
2017-09-13T05:56:36.400Z,13.80
2017-09-13T05:59:03.968Z,13.79
2017-09-13T06:01:31.490Z,13.84
2017-09-13T06:03:59.007Z,14.16
2017-09-13T06:06:26.523Z,14.13
2017-09-13T06:08:54.046Z,14.38
2017-09-13T06:11:21.578Z,14.41
2017-09-13T06:13:49.102Z,14.48
2017-09-13T06:16:16.717Z,14.60
2017-09-13T06:18:44.223Z,14.64
2017-09-13T06:21:11.764Z,14.70
2017-09-13T06:23:39.339Z,14.80
2017-09-13T06:26:06.835Z,14.90
2017-09-13T06:28:34.346Z,14.95
2017-09-13T06:31:01.851Z,15.12
2017-09-13T06:33:29.365Z,15.16
2017-09-13T06:35:57.039Z,15.26
2017-09-13T06:38:24.556Z,15.37
2017-09-13T06:40:52.077Z,15.30
2017-09-13T06:43:19.601Z,15.28
2017-09-13T06:45:47.118Z,15.24
2017-09-13T06:48:14.748Z,15.42
2017-09-13T06:50:42.260Z,15.39
2017-09-13T06:53:09.792Z,15.34
2017-09-13T06:55:37.308Z,15.42
2017-09-13T06:58:04.927Z,15.54
2017-09-13T07:00:32.444Z,15.62
2017-09-13T07:02:59.951Z,15.75
2017-09-13T07:05:27.487Z,15.72
2017-09-13T07:07:54.999Z,15.88
2017-09-13T07:10:22.524Z,15.88
2017-09-13T07:12:50.031Z,15.77
2017-09-13T07:15:17.579Z,15.82
2017-09-13T07:17:45.092Z,15.82
2017-09-13T07:20:12.608Z,15.77
2017-09-13T07:22:40.142Z,15.97
2017-09-13T07:25:07.664Z,15.96
2017-09-13T07:27:35.162Z,15.85
2017-09-13T07:30:02.671Z,15.83
2017-09-13T07:32:30.171Z,15.86
2017-09-13T07:34:57.671Z,15.79
2017-09-13T07:37:25.314Z,15.93
2017-09-13T07:39:52.829Z,15.95
2017-09-13T07:42:20.390Z,15.93
2017-09-13T07:44:47.919Z,16.16
2017-09-13T07:47:15.435Z,16.07
2017-09-13T07:49:42.967Z,16.11
2017-09-13T07:52:10.472Z,16.32
2017-09-13T07:54:37.988Z,16.55
2017-09-13T07:57:05.507Z,16.45
2017-09-13T07:59:33.040Z,16.55
2017-09-13T08:02:00.543Z,16.60
2017-09-13T08:04:28.063Z,16.50
2017-09-13T08:06:55.592Z,16.52
2017-09-13T08:09:23.264Z,16.56
2017-09-13T08:11:50.779Z,17.02
2017-09-13T08:14:18.299Z,16.98
2017-09-13T08:16:45.824Z,16.95
2017-09-13T08:19:13.325Z,16.97
2017-09-13T08:21:40.834Z,17.12
2017-09-13T08:24:08.356Z,17.26
2017-09-13T08:26:35.870Z,17.58
2017-09-13T08:29:03.391Z,17.59
2017-09-13T08:31:30.900Z,17.94
2017-09-13T08:33:58.428Z,17.96
2017-09-13T08:36:25.991Z,17.90
2017-09-13T08:38:53.499Z,17.80
2017-09-13T08:41:21.012Z,18.17
2017-09-13T08:43:48.551Z,18.59
2017-09-13T08:46:16.056Z,18.87
2017-09-13T08:48:43.567Z,18.81
2017-09-13T08:51:11.075Z,18.59
2017-09-13T08:53:38.586Z,18.46
2017-09-13T08:56:06.098Z,18.24
2017-09-13T08:58:33.664Z,18.21
2017-09-13T09:01:01.175Z,18.32
2017-09-13T09:03:28.739Z,18.27
2017-09-13T09:05:56.300Z,18.21
2017-09-13T09:08:23.820Z,18.09
2017-09-13T09:10:51.331Z,18.07
2017-09-13T09:13:18.855Z,17.96
2017-09-13T09:15:46.378Z,18.23
2017-09-13T09:18:13.866Z,18.42
2017-09-13T09:20:41.380Z,18.43
2017-09-13T09:23:08.888Z,18.51
2017-09-13T09:25:36.403Z,18.38
2017-09-13T09:28:03.942Z,18.85
2017-09-13T09:30:31.441Z,18.78
2017-09-13T09:32:58.961Z,18.84
2017-09-13T09:35:26.464Z,18.73
2017-09-13T09:37:54.161Z,18.78
2017-09-13T09:40:21.716Z,18.31
2017-09-13T09:42:49.234Z,18.07
2017-09-13T09:45:16.751Z,18.23
2017-09-13T09:47:44.279Z,18.43
2017-09-13T09:50:11.779Z,18.11
2017-09-13T09:52:39.291Z,18.17
2017-09-13T09:55:06.789Z,18.15
2017-09-13T09:57:34.297Z,17.89
2017-09-13T10:00:01.816Z,17.60
2017-09-13T10:02:30.354Z,17.93
2017-09-13T10:04:57.854Z,18.19
2017-09-13T10:07:25.375Z,18.41
2017-09-13T10:09:52.898Z,18.58
2017-09-13T10:12:20.415Z,18.44
2017-09-13T10:14:47.924Z,18.33
2017-09-13T10:17:15.435Z,18.18
2017-09-13T10:19:42.958Z,18.52
2017-09-13T10:22:10.531Z,19.00
2017-09-13T10:24:38.035Z,19.69
2017-09-13T10:27:05.541Z,19.77
2017-09-13T10:29:33.053Z,19.43
2017-09-13T10:32:00.563Z,19.32
2017-09-13T10:34:28.070Z,19.20
2017-09-13T10:36:55.577Z,20.06
2017-09-13T10:39:23.088Z,20.62
2017-09-13T10:41:50.595Z,20.11
2017-09-13T10:44:18.090Z,19.82
2017-09-13T10:46:45.598Z,19.10
2017-09-13T10:49:13.103Z,19.39
2017-09-13T10:51:40.611Z,19.24
2017-09-13T10:54:08.120Z,19.12
2017-09-13T10:56:35.640Z,18.93
2017-09-13T10:59:03.152Z,18.84
2017-09-13T11:01:30.665Z,19.30
2017-09-13T11:03:58.174Z,19.41
2017-09-13T11:06:25.688Z,19.27
2017-09-13T11:08:53.197Z,19.42
2017-09-13T11:11:20.699Z,19.72
2017-09-13T11:13:48.214Z,19.64
2017-09-13T11:16:15.720Z,19.67
2017-09-13T11:18:43.258Z,19.85
2017-09-13T11:21:10.784Z,20.48
2017-09-13T11:23:38.340Z,20.89
2017-09-13T11:26:05.859Z,22.12
2017-09-13T11:28:33.396Z,23.53
2017-09-13T11:31:00.896Z,23.35
2017-09-13T11:33:28.454Z,24.85
2017-09-13T11:35:55.985Z,24.02
2017-09-13T11:38:23.612Z,23.63
2017-09-13T11:40:51.124Z,23.30
2017-09-13T11:43:19.552Z,22.37
2017-09-13T11:45:47.070Z,21.72
2017-09-13T11:48:14.600Z,21.48
2017-09-13T11:50:42.112Z,21.09
2017-09-13T11:53:09.623Z,20.73
2017-09-13T11:55:37.139Z,20.47
2017-09-13T11:58:04.645Z,20.16
2017-09-13T12:00:32.152Z,19.94
2017-09-13T12:02:59.760Z,19.86
2017-09-13T12:05:27.265Z,19.70
2017-09-13T12:07:54.778Z,19.52
2017-09-13T12:10:22.328Z,19.67
2017-09-13T12:12:49.840Z,19.59
2017-09-13T12:15:17.379Z,19.54
2017-09-13T12:17:44.919Z,19.48
2017-09-13T12:20:12.449Z,19.41
2017-09-13T12:22:39.967Z,19.48
2017-09-13T12:25:07.479Z,19.52
2017-09-13T12:27:34.987Z,19.42
2017-09-13T12:30:02.500Z,19.41
2017-09-13T12:32:30.111Z,19.38
2017-09-13T12:34:57.669Z,19.41
2017-09-13T12:37:25.209Z,19.41
2017-09-13T12:39:52.722Z,19.52
2017-09-13T12:42:20.247Z,19.46
2017-09-13T12:44:47.752Z,19.59
2017-09-13T12:47:15.279Z,19.50
2017-09-13T12:49:42.806Z,19.44
2017-09-13T12:52:10.335Z,19.18
2017-09-13T12:54:37.862Z,19.23
2017-09-13T12:57:05.381Z,19.28
2017-09-13T12:59:32.896Z,19.25
2017-09-13T13:02:00.427Z,19.45
2017-09-13T13:04:27.935Z,19.44
2017-09-13T13:06:55.468Z,19.61
2017-09-13T13:09:22.992Z,19.80
2017-09-13T13:11:50.495Z,19.86
2017-09-13T13:14:18.024Z,19.77
2017-09-13T13:16:45.532Z,19.92
2017-09-13T13:19:13.071Z,19.98
2017-09-13T13:21:40.579Z,19.99
2017-09-13T13:24:08.098Z,19.87
2017-09-13T13:26:35.618Z,19.90
2017-09-13T13:29:03.131Z,19.83
2017-09-13T13:31:30.675Z,19.69
2017-09-13T13:33:58.183Z,19.90
2017-09-13T13:36:25.685Z,19.82
2017-09-13T13:38:53.187Z,19.86
2017-09-13T13:41:20.720Z,19.91
2017-09-13T13:43:48.223Z,19.93
2017-09-13T13:46:15.751Z,19.87
2017-09-13T13:48:43.276Z,19.90
2017-09-13T13:51:10.790Z,19.78
2017-09-13T13:53:38.300Z,19.82
2017-09-13T13:56:05.803Z,19.66
2017-09-13T13:58:33.298Z,19.64
2017-09-13T14:01:00.799Z,19.65
2017-09-13T14:03:28.324Z,19.64
2017-09-13T14:05:55.825Z,19.60
2017-09-13T14:08:23.334Z,19.54
2017-09-13T14:10:50.851Z,19.62
2017-09-13T14:13:18.398Z,19.63
2017-09-13T14:15:45.919Z,19.59
2017-09-13T14:18:13.422Z,19.63
2017-09-13T14:20:40.915Z,19.75
2017-09-13T14:25:35.261Z,19.82
2017-09-13T14:28:02.802Z,20.03
2017-09-13T14:30:30.330Z,19.87
2017-09-13T14:32:57.851Z,20.08
2017-09-13T14:35:25.354Z,20.15
2017-09-13T14:37:52.884Z,20.34
2017-09-13T14:40:20.409Z,20.15
2017-09-13T14:42:47.927Z,20.19
2017-09-13T14:45:15.430Z,20.17
2017-09-13T14:47:42.947Z,20.00
2017-09-13T14:50:10.478Z,20.19
2017-09-13T14:52:38.047Z,19.96
2017-09-13T14:55:05.554Z,19.99
2017-09-13T14:57:33.218Z,19.96
2017-09-13T15:00:00.743Z,19.94
2017-09-13T15:02:28.381Z,19.83
2017-09-13T15:04:55.916Z,19.76
2017-09-13T15:07:23.443Z,19.74
2017-09-13T15:09:50.971Z,19.39
2017-09-13T15:12:18.486Z,19.40
2017-09-13T15:14:46.010Z,19.46
2017-09-13T15:17:13.533Z,19.36
2017-09-13T15:19:41.038Z,19.26
2017-09-13T15:22:08.539Z,19.00
2017-09-13T15:24:36.058Z,19.04
2017-09-13T15:27:03.614Z,18.91
2017-09-13T15:29:31.127Z,18.89
2017-09-13T15:31:58.662Z,18.73
2017-09-13T15:34:26.167Z,18.60
2017-09-13T15:36:53.695Z,18.53
2017-09-13T15:39:21.209Z,18.46
2017-09-13T15:41:49.067Z,18.61
2017-09-13T15:44:16.600Z,18.69
2017-09-13T15:46:44.136Z,18.72
2017-09-13T15:49:11.656Z,18.60
2017-09-13T15:51:39.201Z,18.63
2017-09-13T15:54:06.714Z,18.69
2017-09-13T15:56:34.319Z,18.65
2017-09-13T15:59:01.828Z,18.71
2017-09-13T16:01:29.333Z,18.68
2017-09-13T16:03:56.859Z,18.74
2017-09-13T16:06:24.385Z,18.77
2017-09-13T16:08:51.910Z,18.70
2017-09-13T16:11:19.434Z,18.83
2017-09-13T16:13:46.973Z,18.80
2017-09-13T16:16:14.516Z,18.89
2017-09-13T16:18:42.032Z,19.12
2017-09-13T16:21:09.659Z,18.99
2017-09-13T16:23:37.176Z,18.99
2017-09-13T16:26:04.699Z,18.79
2017-09-13T16:28:32.255Z,18.79
2017-09-13T16:30:59.818Z,18.52
2017-09-13T16:33:27.353Z,18.68
2017-09-13T16:35:55.106Z,18.73
2017-09-13T16:38:22.645Z,18.56
2017-09-13T16:40:50.167Z,18.72
2017-09-13T16:43:17.707Z,18.55
2017-09-13T16:45:45.254Z,18.45
2017-09-13T16:48:12.848Z,18.57
2017-09-13T16:50:40.406Z,18.64
2017-09-13T16:53:07.978Z,18.45
2017-09-13T16:55:35.479Z,18.32
2017-09-13T16:58:03.029Z,18.32
2017-09-13T17:00:30.543Z,18.25
2017-09-13T17:02:58.075Z,18.40
2017-09-13T17:05:25.591Z,18.40
2017-09-13T17:07:53.103Z,18.44
2017-09-13T17:10:20.624Z,18.31
2017-09-13T17:12:48.130Z,18.31
2017-09-13T17:15:15.640Z,18.35
2017-09-13T17:17:43.139Z,18.24
2017-09-13T17:20:10.675Z,18.29
2017-09-13T17:22:38.199Z,18.28
2017-09-13T17:25:05.782Z,18.21
2017-09-13T17:27:33.327Z,18.17
2017-09-13T17:30:00.860Z,18.11
2017-09-13T17:32:28.494Z,18.04
2017-09-13T17:34:56.057Z,18.09
2017-09-13T17:37:23.622Z,17.98
2017-09-13T17:39:51.140Z,17.98
2017-09-13T17:42:18.649Z,17.86
2017-09-13T17:44:46.153Z,17.87
2017-09-13T17:47:13.767Z,17.83
2017-09-13T17:49:41.272Z,17.82
2017-09-13T17:52:08.843Z,17.81
2017-09-13T17:54:36.355Z,17.72
2017-09-13T17:57:03.887Z,17.72
2017-09-13T17:59:31.396Z,17.74
2017-09-13T18:01:58.904Z,17.75
2017-09-13T18:04:26.420Z,17.84
2017-09-13T18:06:53.963Z,17.90
2017-09-13T18:09:22.435Z,17.80
2017-09-13T18:11:49.956Z,17.88
2017-09-13T18:14:17.600Z,18.03
2017-09-13T18:16:45.151Z,18.15
2017-09-13T18:19:12.691Z,18.20
2017-09-13T18:21:40.211Z,18.21
2017-09-13T18:24:07.733Z,18.30
2017-09-13T18:26:35.240Z,18.39
2017-09-13T18:29:02.886Z,18.41
2017-09-13T18:31:30.399Z,18.53
2017-09-13T18:33:57.908Z,18.53
2017-09-13T18:36:25.461Z,18.52
2017-09-13T18:38:52.994Z,18.60
2017-09-13T18:41:20.701Z,18.70
2017-09-13T18:43:48.231Z,18.67
2017-09-13T18:46:15.754Z,18.70
2017-09-13T18:48:45.489Z,18.68
2017-09-13T18:51:13.010Z,18.70
2017-09-13T18:53:40.592Z,18.75
2017-09-13T18:56:08.194Z,18.79
2017-09-13T18:58:35.776Z,18.90
2017-09-13T19:01:03.368Z,18.92
2017-09-13T19:03:30.895Z,18.85
2017-09-13T19:05:58.413Z,18.97
2017-09-13T19:08:25.970Z,19.12
2017-09-13T19:10:53.487Z,19.09
2017-09-13T19:13:21.149Z,19.16
2017-09-13T19:15:48.795Z,19.25
2017-09-13T19:18:16.341Z,19.23
2017-09-13T19:20:43.911Z,19.27
2017-09-13T19:23:11.482Z,19.38
2017-09-13T19:25:39.044Z,19.25
2017-09-13T19:28:06.630Z,19.24
2017-09-13T19:30:34.220Z,19.42
2017-09-13T19:33:01.839Z,19.36
2017-09-13T19:35:29.406Z,19.50
2017-09-13T19:37:56.937Z,19.56
2017-09-13T19:40:24.618Z,19.70
2017-09-13T19:42:52.152Z,19.64
2017-09-13T19:45:19.842Z,19.56
2017-09-13T19:47:47.385Z,19.53
2017-09-13T19:50:14.995Z,19.48
2017-09-13T19:52:42.516Z,19.49
2017-09-13T19:55:10.107Z,19.46
2017-09-13T19:57:37.627Z,19.46
2017-09-13T20:00:05.151Z,19.37
2017-09-13T20:02:32.826Z,19.43
2017-09-13T20:05:00.383Z,19.52
2017-09-13T20:07:27.899Z,19.67
2017-09-13T20:09:55.422Z,19.68
2017-09-13T20:12:22.958Z,19.65
2017-09-13T20:14:51.386Z,19.66
2017-09-13T20:17:18.930Z,19.66
2017-09-13T20:19:46.669Z,19.67
2017-09-13T20:22:14.206Z,19.72
2017-09-13T20:24:41.803Z,19.72
2017-09-13T20:27:09.330Z,19.71
2017-09-13T20:29:36.855Z,19.70
2017-09-13T20:32:04.357Z,19.66
2017-09-13T20:34:31.864Z,19.49
2017-09-13T20:36:59.431Z,19.56
2017-09-13T20:39:26.939Z,19.77
2017-09-13T20:41:54.484Z,19.77
2017-09-13T20:44:22.023Z,19.69
2017-09-13T20:46:49.540Z,19.78
2017-09-13T20:49:17.041Z,19.76
2017-09-13T20:51:44.577Z,19.78
2017-09-13T20:54:12.171Z,19.71
2017-09-13T20:56:39.700Z,19.61
2017-09-13T20:59:07.215Z,19.72
2017-09-13T21:01:34.739Z,19.71
2017-09-13T21:04:02.242Z,19.69
2017-09-13T21:06:29.748Z,19.83
2017-09-13T21:08:57.276Z,19.66
2017-09-13T21:11:24.790Z,19.64
2017-09-13T21:13:52.311Z,19.84
2017-09-13T21:16:19.864Z,19.85
2017-09-13T21:18:47.368Z,19.66
2017-09-13T21:21:14.879Z,19.67
2017-09-13T21:23:42.384Z,19.65
2017-09-13T21:26:09.957Z,19.59
2017-09-13T21:28:37.486Z,19.59
2017-09-13T21:31:05.016Z,19.68
2017-09-13T21:33:32.536Z,19.69
2017-09-13T21:36:00.057Z,19.80
2017-09-13T21:38:27.582Z,19.84
2017-09-13T21:40:55.100Z,19.82
2017-09-13T21:43:22.619Z,20.01
2017-09-13T21:45:50.121Z,20.07
2017-09-13T21:48:17.628Z,20.15
2017-09-13T21:50:45.158Z,20.24
2017-09-13T21:53:12.676Z,20.09
2017-09-13T21:55:40.208Z,20.01
2017-09-13T21:58:07.714Z,20.09
2017-09-13T22:00:35.219Z,19.94
2017-09-13T22:03:02.725Z,19.81
2017-09-13T22:05:30.226Z,19.67
2017-09-13T22:07:57.739Z,19.72
2017-09-13T22:10:25.245Z,19.61
2017-09-13T22:12:52.751Z,19.74
2017-09-13T22:15:20.247Z,19.64
2017-09-13T22:17:47.770Z,19.45
2017-09-13T22:20:15.353Z,19.30
2017-09-13T22:22:42.851Z,19.33
2017-09-13T22:25:10.370Z,19.46
2017-09-13T22:27:37.901Z,19.51
2017-09-13T22:30:05.422Z,19.42
2017-09-13T22:32:33.001Z,19.53
2017-09-13T22:35:00.512Z,19.47
2017-09-13T22:37:28.011Z,19.47
2017-09-13T22:39:55.537Z,19.62
2017-09-13T22:42:23.040Z,19.60
2017-09-13T22:44:50.546Z,19.60
2017-09-13T22:47:18.055Z,19.80
2017-09-13T22:49:45.589Z,19.89
2017-09-13T22:52:13.095Z,19.99
2017-09-13T22:54:40.610Z,20.26
2017-09-13T22:57:08.122Z,20.46
2017-09-13T22:59:35.652Z,20.65
2017-09-13T23:02:03.155Z,20.57
2017-09-13T23:04:30.675Z,20.62
2017-09-13T23:06:58.200Z,20.62
2017-09-13T23:09:31.493Z,20.76
2017-09-13T23:11:58.989Z,20.69
2017-09-13T23:14:26.515Z,20.65
2017-09-13T23:16:54.047Z,20.70
2017-09-13T23:19:21.574Z,20.81
2017-09-13T23:21:49.086Z,20.86
2017-09-13T23:24:16.596Z,20.92
2017-09-13T23:26:44.098Z,20.93
2017-09-13T23:29:11.608Z,20.85
2017-09-13T23:31:39.110Z,20.74
2017-09-13T23:34:06.616Z,20.77
2017-09-13T23:36:34.128Z,21.01
2017-09-13T23:39:01.640Z,20.96
2017-09-13T23:41:29.143Z,20.92
2017-09-13T23:43:56.647Z,20.92
2017-09-13T23:46:24.143Z,20.95
2017-09-13T23:48:51.655Z,20.87
2017-09-13T23:51:19.168Z,20.82
2017-09-13T23:53:46.694Z,20.96
2017-09-13T23:56:14.196Z,21.11
2017-09-13T23:58:41.711Z,20.99
